Time;durP1;ratioP1;P1;durP2;ratioP2;P2;SDS_P1;SDS_P2;PMS_P1;PMS_P2;Temp;Humidity;BMP_temperature;BMP_pressure;BME280_temperature;BME280_humidity;BME280_pressure;Samples;Min_cycle;Max_cycle;Signal;HPM_P1;HPM_P2
2023/01/26 00:02:11;;;;;;;38.97;15.85;;;1.30;99.90;;;;;;4945235;28;20031;-78
2023/01/26 00:04:37;;;;;;;37.60;14.80;;;1.30;99.90;;;;;;4947683;28;20090;-79
2023/01/26 00:07:02;;;;;;;31.73;14.15;;;1.30;99.90;;;;;;4966012;28;20023;-79
2023/01/26 00:09:28;;;;;;;23.83;11.10;;;1.30;99.90;;;;;;4949021;28;20031;-79
2023/01/26 00:11:53;;;;;;;39.00;14.13;;;1.20;99.90;;;;;;4946903;28;20152;-79
2023/01/26 00:14:19;;;;;;;40.63;15.80;;;1.20;99.90;;;;;;4946787;28;20114;-78
2023/01/26 00:16:45;;;;;;;36.60;14.73;;;1.10;99.90;;;;;;4948719;28;20050;-78
2023/01/26 00:19:10;;;;;;;27.77;12.45;;;1.10;99.90;;;;;;4946022;28;20066;-77
2023/01/26 00:21:36;;;;;;;24.85;12.85;;;1.20;99.90;;;;;;4950043;28;20027;-78
2023/01/26 00:24:03;;;;;;;22.60;11.50;;;1.20;99.90;;;;;;4948863;28;20030;-78
2023/01/26 00:26:29;;;;;;;24.15;11.90;;;1.20;99.90;;;;;;4947855;28;20046;-78
2023/01/26 00:28:55;;;;;;;22.92;11.23;;;1.30;99.90;;;;;;4946636;28;20396;-78
2023/01/26 00:31:23;;;;;;;24.60;12.32;;;1.30;99.90;;;;;;4948669;28;20547;-78
2023/01/26 00:33:50;;;;;;;23.35;12.35;;;1.40;99.90;;;;;;4949730;28;20035;-78
2023/01/26 00:36:15;;;;;;;22.90;11.23;;;1.40;99.90;;;;;;4951809;28;20552;-79
2023/01/26 00:38:41;;;;;;;21.90;10.45;;;1.40;99.90;;;;;;4949295;28;20047;-79
2023/01/26 00:41:07;;;;;;;22.23;11.07;;;1.30;99.90;;;;;;4949953;28;20480;-78
2023/01/26 00:43:33;;;;;;;25.70;12.82;;;1.30;99.90;;;;;;4949087;28;20035;-78
2023/01/26 00:45:58;;;;;;;21.63;11.70;;;1.20;99.90;;;;;;4948996;28;20480;-78
2023/01/26 00:48:24;;;;;;;28.60;13.63;;;1.10;99.90;;;;;;4956937;28;20444;-79
2023/01/26 00:50:50;;;;;;;23.17;11.75;;;1.20;99.90;;;;;;4947703;28;20035;-78
2023/01/26 00:53:16;;;;;;;25.50;12.95;;;1.10;99.90;;;;;;4943535;28;20035;-79
2023/01/26 00:55:42;;;;;;;51.10;17.58;;;1.10;99.90;;;;;;4951289;28;20042;-78
2023/01/26 00:58:08;;;;;;;36.92;15.82;;;1.10;99.90;;;;;;4950533;28;20061;-78
2023/01/26 01:00:36;;;;;;;30.08;13.90;;;1.10;99.90;;;;;;4951117;28;20042;-78
2023/01/26 01:03:02;;;;;;;22.20;12.07;;;1.20;99.90;;;;;;4949720;28;20055;-79
2023/01/26 01:05:30;;;;;;;36.92;16.65;;;1.20;99.90;;;;;;4947457;28;20067;-79
2023/01/26 01:07:56;;;;;;;34.67;14.13;;;1.20;99.90;;;;;;4951342;28;20546;-78
2023/01/26 01:10:22;;;;;;;46.67;17.40;;;1.20;99.90;;;;;;4950884;28;20033;-78
2023/01/26 01:12:48;;;;;;;31.70;14.00;;;1.10;99.90;;;;;;4947681;28;20146;-78
2023/01/26 01:15:14;;;;;;;25.02;12.30;;;1.10;99.90;;;;;;4947224;28;20110;-78
2023/01/26 01:17:40;;;;;;;23.98;12.30;;;1.10;99.90;;;;;;4958977;28;20086;-78
2023/01/26 01:20:07;;;;;;;22.85;11.80;;;1.10;99.90;;;;;;4952395;28;20109;-78
2023/01/26 01:22:33;;;;;;;21.33;11.70;;;1.10;99.90;;;;;;4953424;28;20027;-79
2023/01/26 01:24:59;;;;;;;21.80;11.65;;;1.10;99.90;;;;;;4968311;28;20024;-79
2023/01/26 01:27:25;;;;;;;20.88;11.43;;;1.10;99.90;;;;;;4954298;28;20047;-77
2023/01/26 01:29:51;;;;;;;21.90;12.00;;;1.00;99.90;;;;;;4953296;28;20416;-79
2023/01/26 01:32:17;;;;;;;23.98;12.68;;;1.10;99.90;;;;;;4946090;28;20046;-79
2023/01/26 01:34:45;;;;;;;22.40;11.63;;;1.00;99.90;;;;;;4948671;28;20035;-79
2023/01/26 01:37:11;;;;;;;21.85;10.55;;;1.00;99.90;;;;;;4954826;28;20031;-79
2023/01/26 01:39:36;;;;;;;23.90;11.43;;;1.10;99.90;;;;;;4950263;28;20464;-78
2023/01/26 01:42:02;;;;;;;21.13;10.70;;;1.10;99.90;;;;;;4949921;28;20023;-79
2023/01/26 01:44:27;;;;;;;24.05;10.20;;;1.10;99.90;;;;;;4944601;28;20027;-78
2023/01/26 01:47:01;;;;;;;20.95;10.48;;;1.00;99.90;;;;;;4950584;28;20046;-78
2023/01/26 01:49:33;;;;;;;17.42;9.98;;;1.10;99.90;;;;;;4950586;28;20511;-78
2023/01/26 01:52:18;;;;;;;19.35;9.55;;;1.00;99.90;;;;;;4950088;28;20125;-78
2023/01/26 01:54:49;;;;;;;22.05;10.88;;;1.00;99.90;;;;;;4950870;28;20038;-79
2023/01/26 01:57:26;;;;;;;20.73;10.95;;;1.00;99.90;;;;;;4950189;28;20051;-78
2023/01/26 02:00:13;;;;;;;18.75;10.18;;;1.00;99.90;;;;;;4951629;28;20106;-78
2023/01/26 02:02:42;;;;;;;19.90;10.13;;;1.00;99.90;;;;;;4949106;28;20041;-78
2023/01/26 02:05:25;;;;;;;22.52;10.88;;;1.00;99.90;;;;;;4948164;28;20030;-78
2023/01/26 02:07:53;;;;;;;17.92;9.82;;;1.00;99.90;;;;;;4946408;28;20026;-78
2023/01/26 02:10:19;;;;;;;20.77;10.52;;;1.00;99.90;;;;;;4948179;28;20034;-78
2023/01/26 02:12:52;;;;;;;21.45;11.48;;;1.00;99.90;;;;;;4951622;28;20467;-78
2023/01/26 02:15:18;;;;;;;22.92;11.38;;;1.00;99.90;;;;;;4946602;28;20051;-78
2023/01/26 02:17:44;;;;;;;22.23;11.32;;;1.00;99.90;;;;;;4951034;28;20023;-77
2023/01/26 02:20:21;;;;;;;22.33;11.48;;;1.00;99.90;;;;;;4950364;28;20764;-77
2023/01/26 02:22:58;;;;;;;20.88;11.95;;;1.00;99.90;;;;;;4950654;28;20032;-78
2023/01/26 02:25:35;;;;;;;24.10;13.02;;;0.90;99.90;;;;;;4948900;28;20067;-76
2023/01/26 02:28:00;;;;;;;20.58;11.40;;;0.90;99.90;;;;;;4951575;28;20031;-77
2023/01/26 02:30:27;;;;;;;22.13;12.40;;;0.90;99.90;;;;;;4949766;28;20049;-77
2023/01/26 02:32:54;;;;;;;21.45;11.25;;;0.90;99.90;;;;;;4953845;28;20046;-79
2023/01/26 02:35:19;;;;;;;24.13;11.68;;;0.90;99.90;;;;;;4963057;28;20031;-78
2023/01/26 02:37:45;;;;;;;22.38;11.20;;;0.90;99.90;;;;;;4951690;28;20030;-79
2023/01/26 02:40:25;;;;;;;22.13;11.75;;;0.90;99.90;;;;;;4947112;28;20432;-78
2023/01/26 02:42:53;;;;;;;22.73;12.00;;;0.90;99.90;;;;;;4944567;28;20031;-77
2023/01/26 02:45:20;;;;;;;21.85;11.68;;;1.00;99.90;;;;;;4946841;28;20038;-78
2023/01/26 02:47:46;;;;;;;23.65;12.02;;;0.90;99.90;;;;;;4950997;28;20061;-77
2023/01/26 02:50:13;;;;;;;22.88;12.20;;;1.00;99.90;;;;;;4949890;28;20075;-78
2023/01/26 02:52:39;;;;;;;23.55;11.82;;;1.00;99.90;;;;;;4947158;28;20031;-78
2023/01/26 02:55:24;;;;;;;28.40;13.07;;;1.00;99.90;;;;;;4951064;28;20032;-78
2023/01/26 02:57:52;;;;;;;27.58;12.77;;;1.00;99.90;;;;;;4947421;28;20051;-78
2023/01/26 03:00:21;;;;;;;26.40;12.82;;;1.10;99.90;;;;;;4948988;28;20404;-78
2023/01/26 03:02:48;;;;;;;23.05;12.23;;;1.10;99.90;;;;;;4951400;28;20118;-78
2023/01/26 03:05:14;;;;;;;24.27;11.10;;;1.10;99.90;;;;;;4945122;28;20035;-78
2023/01/26 03:07:39;;;;;;;20.80;10.75;;;1.20;99.90;;;;;;4964157;28;21902;-78
2023/01/26 03:10:06;;;;;;;21.40;10.68;;;1.20;99.90;;;;;;4946727;28;20039;-78
2023/01/26 03:12:31;;;;;;;24.40;12.88;;;1.20;99.90;;;;;;4949716;28;20039;-79
2023/01/26 03:17:41;;;;;;;;;;;1.20;99.90;;;;;;4947908;28;20098;-79
2023/01/26 03:28:21;;;;;;;;;;;1.20;99.90;;;;;;4948256;28;20047;-78
2023/01/26 03:30:54;;;;;;;22.48;11.13;;;1.20;99.90;;;;;;4956173;28;19914;-79
2023/01/26 03:33:20;;;;;;;20.48;9.52;;;1.20;99.90;;;;;;4955947;28;20066;-78
2023/01/26 03:35:46;;;;;;;19.80;10.25;;;1.20;99.90;;;;;;4956297;28;20420;-79
2023/01/26 03:38:12;;;;;;;20.02;11.20;;;1.20;99.90;;;;;;4951613;28;20114;-78
2023/01/26 03:57:04;;;;;;;;;;;1.20;99.90;;;;;;4951024;28;20042;-78
2023/01/26 03:59:38;;;;;;;23.75;10.73;;;1.30;99.90;;;;;;4952326;28;20346;-78
2023/01/26 04:10:21;;;;;;;19.85;9.55;;;1.20;99.90;;;;;;4954222;28;19918;-78
2023/01/26 04:23:48;;;;;;;20.17;9.73;;;1.20;99.90;;;;;;4949787;28;20110;-78
2023/01/26 04:26:15;;;;;;;19.95;10.07;;;1.20;99.90;;;;;;4951257;28;20035;-78
2023/01/26 04:28:41;;;;;;;21.63;9.90;;;1.20;99.90;;;;;;4950577;28;20494;-78
2023/01/26 04:31:07;;;;;;;20.58;9.50;;;1.30;99.90;;;;;;4951882;28;20035;-78
2023/01/26 04:33:32;;;;;;;18.90;9.43;;;1.20;99.90;;;;;;4947157;28;20038;-78
2023/01/26 04:36:05;;;;;;;18.45;9.38;;;1.20;99.90;;;;;;4953616;28;20031;-78
2023/01/26 04:38:31;;;;;;;19.95;10.70;;;1.20;99.90;;;;;;4949513;28;20050;-78
2023/01/26 04:40:57;;;;;;;19.38;9.35;;;1.20;99.90;;;;;;4956700;28;20495;-78
2023/01/26 04:43:23;;;;;;;21.65;10.65;;;1.10;99.90;;;;;;4957845;28;20023;-77
2023/01/26 04:46:03;;;;;;;23.02;11.05;;;1.10;99.90;;;;;;4957957;28;20024;-77
2023/01/26 04:48:30;;;;;;;21.23;10.15;;;1.10;99.90;;;;;;4957567;28;20373;-78
2023/01/26 04:51:01;;;;;;;21.83;10.77;;;1.20;99.90;;;;;;4957127;28;20109;-78
2023/01/26 04:53:26;;;;;;;19.35;8.63;;;1.20;99.90;;;;;;4953080;28;20118;-78
2023/01/26 04:55:53;;;;;;;21.52;9.85;;;1.20;99.90;;;;;;4951855;28;20098;-79
2023/01/26 04:58:18;;;;;;;18.55;8.77;;;1.20;99.90;;;;;;4954208;28;20032;-78
2023/01/26 05:00:49;;;;;;;16.83;8.30;;;1.20;99.90;;;;;;4942442;28;20126;-78
2023/01/26 05:03:14;;;;;;;17.02;8.32;;;1.20;99.90;;;;;;4948946;28;20520;-78
2023/01/26 05:05:40;;;;;;;19.33;9.05;;;1.30;99.90;;;;;;4945496;28;20085;-78
2023/01/26 05:08:05;;;;;;;16.75;8.40;;;1.30;99.90;;;;;;4954113;28;20107;-78
2023/01/26 05:10:32;;;;;;;20.73;9.73;;;1.30;99.90;;;;;;4969466;28;20094;-78
2023/01/26 05:12:58;;;;;;;20.00;8.82;;;1.30;99.90;;;;;;4953144;28;20091;-78
2023/01/26 05:15:24;;;;;;;16.67;8.38;;;1.30;99.90;;;;;;4949015;28;20485;-78
2023/01/26 05:17:49;;;;;;;19.45;9.50;;;1.30;99.90;;;;;;4949151;28;20118;-78
2023/01/26 05:20:15;;;;;;;23.00;11.23;;;1.30;99.90;;;;;;4946739;28;20110;-78
2023/01/26 05:22:41;;;;;;;25.13;12.65;;;1.30;99.90;;;;;;4964813;28;20046;-78
2023/01/26 05:25:07;;;;;;;27.90;13.40;;;1.30;99.90;;;;;;4949106;28;20051;-78
2023/01/26 05:27:32;;;;;;;26.58;13.52;;;1.30;99.90;;;;;;4950886;28;20035;-78
2023/01/26 05:30:01;;;;;;;26.27;13.00;;;1.30;99.90;;;;;;4947702;28;20388;-78
2023/01/26 05:32:30;;;;;;;20.40;10.48;;;1.30;99.90;;;;;;4947076;28;20062;-78
2023/01/26 05:34:56;;;;;;;24.92;11.27;;;1.30;99.90;;;;;;4946786;28;20605;-78
2023/01/26 05:37:24;;;;;;;19.25;9.95;;;1.20;99.90;;;;;;4944366;28;20039;-78
2023/01/26 05:39:50;;;;;;;24.58;11.65;;;1.20;99.90;;;;;;4944800;28;20027;-78
2023/01/26 05:42:16;;;;;;;23.73;11.48;;;1.20;99.90;;;;;;4946086;28;20023;-78
2023/01/26 05:44:41;;;;;;;22.25;10.00;;;1.20;99.90;;;;;;4945574;28;20031;-79
2023/01/26 05:47:07;;;;;;;23.73;11.13;;;1.10;99.90;;;;;;4948769;28;20693;-78
2023/01/26 05:49:33;;;;;;;25.20;11.30;;;1.10;99.90;;;;;;4946388;28;20071;-79
2023/01/26 05:51:58;;;;;;;23.65;10.45;;;1.10;99.90;;;;;;4947568;28;20039;-79
2023/01/26 05:54:24;;;;;;;21.40;10.75;;;1.10;99.90;;;;;;4947615;28;20035;-78
2023/01/26 05:56:52;;;;;;;22.75;9.88;;;1.20;99.90;;;;;;4952107;28;20462;-79
2023/01/26 05:59:17;;;;;;;23.15;10.98;;;1.20;99.90;;;;;;4947464;28;20027;-78
2023/01/26 06:01:43;;;;;;;26.20;11.75;;;1.20;99.90;;;;;;4943858;28;20483;-78
2023/01/26 06:04:09;;;;;;;25.08;10.95;;;1.20;99.90;;;;;;4948843;28;20023;-79
2023/01/26 06:06:35;;;;;;;17.95;8.10;;;1.20;99.90;;;;;;4946441;28;20477;-78
2023/01/26 06:09:00;;;;;;;20.42;9.93;;;1.10;99.90;;;;;;4948526;28;20041;-78
2023/01/26 06:11:26;;;;;;;24.33;10.52;;;1.20;99.90;;;;;;4948596;28;20455;-78
2023/01/26 06:13:51;;;;;;;20.73;10.65;;;1.10;99.90;;;;;;4946532;28;20110;-78
2023/01/26 06:16:17;;;;;;;25.42;10.70;;;1.20;99.90;;;;;;4947405;28;20707;-77
2023/01/26 06:18:46;;;;;;;22.08;9.95;;;1.40;99.90;;;;;;4948840;28;21427;-78
2023/01/26 06:21:11;;;;;;;24.52;11.25;;;1.40;99.90;;;;;;4949224;28;20029;-78
2023/01/26 06:23:37;;;;;;;23.50;10.35;;;1.50;99.90;;;;;;4948208;28;20447;-79
2023/01/26 06:26:02;;;;;;;19.02;10.38;;;1.50;99.90;;;;;;4948108;28;20038;-78
2023/01/26 06:28:29;;;;;;;24.33;10.43;;;1.50;99.90;;;;;;4945356;28;20455;-78
2023/01/26 06:31:02;;;;;;;24.05;10.52;;;1.50;99.90;;;;;;4948408;28;20369;-79
2023/01/26 06:33:28;;;;;;;19.50;9.95;;;1.50;99.90;;;;;;4944751;28;20478;-78
2023/01/26 06:35:54;;;;;;;24.23;10.43;;;1.50;99.90;;;;;;4952112;28;20110;-78
2023/01/26 06:38:20;;;;;;;24.98;10.82;;;1.40;99.90;;;;;;4947527;28;20046;-78
2023/01/26 06:40:46;;;;;;;23.75;11.93;;;1.50;99.90;;;;;;4946965;28;20023;-78
2023/01/26 06:43:12;;;;;;;25.80;11.05;;;1.40;99.90;;;;;;4962777;28;20086;-78
2023/01/26 06:45:37;;;;;;;21.35;10.60;;;1.40;99.90;;;;;;4952978;28;20035;-78
2023/01/26 06:48:03;;;;;;;22.27;10.95;;;1.40;99.90;;;;;;4951497;28;20502;-79
2023/01/26 06:50:32;;;;;;;25.85;12.23;;;1.40;99.90;;;;;;4944454;28;20051;-77
2023/01/26 06:53:01;;;;;;;26.35;12.15;;;1.40;99.90;;;;;;4953664;28;20041;-78
2023/01/26 06:55:37;;;;;;;25.02;12.18;;;1.40;99.90;;;;;;4955983;28;20031;-77
2023/01/26 06:58:03;;;;;;;24.08;11.23;;;1.30;99.90;;;;;;4952214;28;20027;-77
2023/01/26 07:00:29;;;;;;;27.33;12.75;;;1.30;99.90;;;;;;4950019;28;20028;-78
2023/01/26 07:02:54;;;;;;;25.98;12.25;;;1.30;99.90;;;;;;4953693;28;20039;-77
2023/01/26 07:05:20;;;;;;;27.23;11.95;;;1.30;99.90;;;;;;4964916;28;20039;-78
2023/01/26 07:07:46;;;;;;;28.73;12.63;;;1.30;99.90;;;;;;4949474;28;20110;-77
2023/01/26 07:10:11;;;;;;;23.67;11.38;;;1.30;99.90;;;;;;4950486;28;20118;-77
2023/01/26 07:12:44;;;;;;;24.95;11.40;;;1.30;99.90;;;;;;4951362;28;20392;-78
2023/01/26 07:15:11;;;;;;;27.13;11.90;;;1.30;99.90;;;;;;4949194;28;20436;-77
2023/01/26 07:17:40;;;;;;;27.42;12.25;;;1.30;99.90;;;;;;4952889;28;20027;-77
2023/01/26 07:20:06;;;;;;;26.33;12.05;;;1.20;99.90;;;;;;4952318;28;20058;-78
2023/01/26 07:22:32;;;;;;;25.40;11.88;;;1.20;99.90;;;;;;4953747;28;20508;-78
2023/01/26 07:24:57;;;;;;;29.48;13.20;;;1.20;99.90;;;;;;4953874;28;20224;-78
2023/01/26 07:27:23;;;;;;;26.30;12.07;;;1.20;99.90;;;;;;4957964;28;20024;-78
2023/01/26 07:29:50;;;;;;;30.05;13.48;;;1.20;99.90;;;;;;4952024;28;20030;-78
2023/01/26 07:32:15;;;;;;;26.73;12.20;;;1.20;99.90;;;;;;4953239;28;20126;-78
2023/01/26 07:34:41;;;;;;;27.98;11.95;;;1.20;99.90;;;;;;4951192;28;20626;-78
2023/01/26 07:37:07;;;;;;;29.00;12.93;;;1.20;99.90;;;;;;4945687;28;20039;-78
2023/01/26 07:39:32;;;;;;;27.88;12.57;;;1.20;99.90;;;;;;4948005;28;20041;-77
2023/01/26 07:41:58;;;;;;;27.73;13.00;;;1.20;99.90;;;;;;4948369;28;20106;-78
2023/01/26 07:44:23;;;;;;;26.95;11.75;;;1.20;99.90;;;;;;4954395;28;21502;-78
2023/01/26 07:46:49;;;;;;;32.13;11.95;;;1.20;99.90;;;;;;4950046;28;20071;-77
2023/01/26 07:49:15;;;;;;;26.60;11.57;;;1.30;99.90;;;;;;4948251;28;20058;-78
2023/01/26 07:51:40;;;;;;;24.10;11.55;;;1.30;99.90;;;;;;4949631;28;20031;-77
2023/01/26 07:54:09;;;;;;;21.73;10.48;;;1.30;99.90;;;;;;4954858;28;20027;-78
2023/01/26 07:56:35;;;;;;;21.77;10.60;;;1.30;99.90;;;;;;4952693;28;20115;-78
2023/01/26 07:59:00;;;;;;;27.25;10.93;;;1.30;99.90;;;;;;4950576;28;20457;-78
2023/01/26 08:01:26;;;;;;;23.35;11.73;;;1.30;99.90;;;;;;4948108;28;20038;-78
2023/01/26 08:03:55;;;;;;;23.35;11.27;;;1.30;99.90;;;;;;4947549;28;20111;-77
2023/01/26 08:06:21;;;;;;;21.63;10.02;;;1.30;99.90;;;;;;4948699;28;20038;-78
2023/01/26 08:08:52;;;;;;;18.45;9.27;;;1.30;99.90;;;;;;4952422;28;20167;-77
2023/01/26 08:11:21;;;;;;;22.20;10.68;;;1.20;99.90;;;;;;4954222;28;20507;-78
2023/01/26 08:13:46;;;;;;;20.45;9.45;;;1.10;99.90;;;;;;4947593;28;20028;-78
2023/01/26 08:16:12;;;;;;;19.38;9.38;;;1.10;99.90;;;;;;4951112;28;20027;-78
2023/01/26 08:18:39;;;;;;;23.10;10.27;;;1.10;99.90;;;;;;4943864;28;20043;-78
2023/01/26 08:21:05;;;;;;;23.17;9.18;;;1.10;99.90;;;;;;4949258;28;20053;-78
2023/01/26 08:23:31;;;;;;;18.08;8.63;;;1.00;99.90;;;;;;4956303;28;20112;-78
2023/01/26 08:26:01;;;;;;;18.27;8.98;;;1.00;99.90;;;;;;4954758;28;20043;-78
2023/01/26 08:28:27;;;;;;;24.05;9.15;;;1.00;99.90;;;;;;4953644;28;20027;-77
2023/01/26 08:30:52;;;;;;;17.13;8.52;;;1.00;99.90;;;;;;4953205;28;20031;-78
2023/01/26 08:33:18;;;;;;;19.90;8.40;;;0.90;99.90;;;;;;4950429;28;20492;-78
2023/01/26 08:35:43;;;;;;;17.83;7.80;;;0.80;99.90;;;;;;4951713;28;20107;-78
2023/01/26 08:38:09;;;;;;;20.60;9.70;;;0.70;99.90;;;;;;4950273;28;20031;-78
2023/01/26 08:40:35;;;;;;;19.45;9.23;;;0.80;99.90;;;;;;4951412;28;20027;-78
2023/01/26 08:43:01;;;;;;;21.20;10.30;;;0.70;99.90;;;;;;4946348;28;20023;-78
2023/01/26 08:45:27;;;;;;;22.40;9.38;;;0.60;99.90;;;;;;4949456;28;20054;-78
2023/01/26 08:47:53;;;;;;;23.52;9.52;;;0.60;99.90;;;;;;4948034;28;20110;-77
2023/01/26 08:50:19;;;;;;;22.10;10.52;;;0.50;99.90;;;;;;4946724;28;20037;-78
2023/01/26 08:52:44;;;;;;;22.35;10.10;;;0.50;99.90;;;;;;4946054;28;20058;-78
2023/01/26 08:55:10;;;;;;;26.50;10.10;;;0.60;99.90;;;;;;4950324;28;20032;-78
2023/01/26 08:57:36;;;;;;;20.17;9.35;;;0.50;99.90;;;;;;4947466;28;20019;-78
2023/01/26 09:00:03;;;;;;;20.70;8.38;;;0.50;99.90;;;;;;4947707;28;20503;-78
2023/01/26 09:02:28;;;;;;;23.85;10.05;;;0.50;99.90;;;;;;4947584;28;20035;-78
2023/01/26 09:04:54;;;;;;;22.52;10.25;;;0.50;99.90;;;;;;4950021;28;20023;-78
2023/01/26 09:07:19;;;;;;;22.63;9.32;;;0.50;99.90;;;;;;4949539;28;20035;-78
2023/01/26 09:09:45;;;;;;;21.98;10.85;;;0.50;99.90;;;;;;4949847;28;20065;-78
2023/01/26 09:12:11;;;;;;;24.02;11.65;;;0.50;99.90;;;;;;4949308;28;20023;-78
2023/01/26 09:14:36;;;;;;;25.05;11.05;;;0.50;99.90;;;;;;4944458;28;21713;-78
2023/01/26 09:17:02;;;;;;;20.67;8.80;;;0.50;99.90;;;;;;4947136;28;20031;-78
2023/01/26 09:19:27;;;;;;;23.90;9.40;;;0.50;99.90;;;;;;4947746;28;20130;-78
2023/01/26 09:21:53;;;;;;;22.10;9.80;;;0.50;99.90;;;;;;4950187;28;20039;-78
2023/01/26 09:24:20;;;;;;;21.92;8.73;;;0.50;99.90;;;;;;4946979;28;20046;-78
2023/01/26 09:26:46;;;;;;;21.20;8.90;;;0.50;99.90;;;;;;4946780;28;20031;-78
2023/01/26 09:29:11;;;;;;;23.85;10.20;;;0.50;99.90;;;;;;4946816;28;20104;-78
2023/01/26 09:31:38;;;;;;;21.38;10.52;;;0.50;99.90;;;;;;4947821;28;20134;-78
2023/01/26 09:34:03;;;;;;;23.10;9.07;;;0.50;99.90;;;;;;4951659;28;20019;-78
2023/01/26 09:36:29;;;;;;;20.90;9.50;;;0.50;99.90;;;;;;4945604;28;20105;-78
2023/01/26 09:38:54;;;;;;;20.65;9.10;;;0.40;99.90;;;;;;4953545;28;20081;-78
2023/01/26 09:41:32;;;;;;;22.50;9.23;;;0.40;99.90;;;;;;4945923;28;20073;-78
2023/01/26 09:44:04;;;;;;;22.95;10.07;;;0.40;99.90;;;;;;4951390;28;20027;-78
2023/01/26 09:46:33;;;;;;;17.80;8.60;;;0.40;99.90;;;;;;4947599;28;20509;-77
2023/01/26 09:49:04;;;;;;;21.80;10.02;;;0.40;99.90;;;;;;4948544;28;20038;-78
2023/01/26 09:51:42;;;;;;;25.35;10.52;;;0.40;99.90;;;;;;4951767;28;20031;-78
2023/01/26 09:54:35;;;;;;;20.83;9.55;;;0.40;99.90;;;;;;4946221;28;20492;-78
2023/01/26 09:57:09;;;;;;;20.90;9.88;;;0.40;99.90;;;;;;4947209;28;20220;-78
2023/01/26 09:59:43;;;;;;;;;;;0.40;99.90;;;;;;4945926;28;20110;-78
2023/01/26 10:02:33;;;;;;;22.95;10.95;;;0.50;99.90;;;;;;4949971;28;19910;-78
2023/01/26 10:05:05;;;;;;;23.73;10.02;;;0.40;99.90;;;;;;4939968;28;20026;-78
2023/01/26 10:07:31;;;;;;;20.35;9.25;;;0.40;99.90;;;;;;4944519;28;20031;-78
2023/01/26 10:09:57;;;;;;;22.45;9.68;;;0.40;99.90;;;;;;4953414;28;20419;-78
2023/01/26 10:12:25;;;;;;;22.38;9.65;;;0.40;99.90;;;;;;4944694;28;20114;-78
2023/01/26 10:15:31;;;;;;;22.98;9.95;;;0.40;99.90;;;;;;4946411;28;20094;-78
2023/01/26 10:18:04;;;;;;;25.77;10.60;;;0.40;99.90;;;;;;4940354;28;20047;-78
2023/01/26 10:20:34;;;;;;;22.75;10.40;;;0.40;99.90;;;;;;4947911;28;20122;-77
2023/01/26 10:23:14;;;;;;;21.25;9.68;;;0.30;99.90;;;;;;4945225;28;20019;-78
2023/01/26 10:25:41;;;;;;;23.08;9.98;;;0.40;99.90;;;;;;4945954;28;20031;-77
2023/01/26 10:28:14;;;;;;;20.75;8.93;;;0.40;99.90;;;;;;4960738;28;20692;-78
2023/01/26 10:30:41;;;;;;;19.20;8.68;;;0.40;99.90;;;;;;4948821;28;20051;-78
2023/01/26 10:33:31;;;;;;;22.00;9.88;;;0.40;99.90;;;;;;4947588;28;20023;-78
2023/01/26 10:35:58;;;;;;;21.60;8.90;;;0.50;99.90;;;;;;4945787;28;20047;-78
2023/01/26 10:38:33;;;;;;;19.42;8.18;;;0.50;99.90;;;;;;4944141;28;20031;-78
2023/01/26 10:41:18;;;;;;;17.33;8.55;;;0.60;99.90;;;;;;4943769;28;20027;-77
2023/01/26 10:44:20;;;;;;;19.30;8.00;;;0.50;99.90;;;;;;4943516;28;20074;-77
2023/01/26 10:47:00;;;;;;;20.67;8.40;;;0.50;99.90;;;;;;4943121;28;20124;-78
2023/01/26 10:49:27;;;;;;;20.23;9.18;;;0.50;99.90;;;;;;4941029;28;20027;-78
2023/01/26 10:52:13;;;;;;;16.38;7.55;;;0.60;99.90;;;;;;4945993;28;20023;-78
2023/01/26 10:54:42;;;;;;;15.88;7.45;;;0.50;99.90;;;;;;4962874;28;20038;-77
2023/01/26 10:57:24;;;;;;;17.75;8.30;;;0.50;99.90;;;;;;4944713;28;20113;-77
2023/01/26 10:59:52;;;;;;;18.30;8.13;;;0.50;99.90;;;;;;4951034;28;20055;-78
2023/01/26 11:02:29;;;;;;;14.38;7.70;;;0.50;99.90;;;;;;4949042;28;20487;-77
2023/01/26 11:05:05;;;;;;;19.25;8.48;;;0.50;99.90;;;;;;4942515;28;20046;-77
2023/01/26 11:07:43;;;;;;;18.77;8.43;;;0.50;99.90;;;;;;4950357;28;20099;-77
2023/01/26 11:10:26;;;;;;;16.98;7.57;;;0.50;99.90;;;;;;4944509;28;20039;-78
2023/01/26 11:13:16;;;;;;;17.88;7.18;;;0.60;99.90;;;;;;4945821;28;20544;-77
2023/01/26 11:15:46;;;;;;;15.77;7.13;;;0.60;99.90;;;;;;4945434;28;20031;-77
2023/01/26 11:18:32;;;;;;;18.63;7.97;;;0.50;99.90;;;;;;4964181;28;20031;-78
2023/01/26 11:21:19;;;;;;;17.42;7.88;;;0.50;99.90;;;;;;4950965;28;20043;-77
2023/01/26 11:24:03;;;;;;;15.57;7.47;;;0.50;99.90;;;;;;4946203;28;20031;-77
2023/01/26 11:26:41;;;;;;;19.20;8.52;;;0.50;99.90;;;;;;4956635;28;20031;-77
2023/01/26 11:29:29;;;;;;;13.55;6.65;;;0.50;99.90;;;;;;4938749;28;20452;-77
2023/01/26 11:32:18;;;;;;;17.77;7.70;;;0.40;99.90;;;;;;4939531;28;20043;-79
2023/01/26 11:35:14;;;;;;;18.60;7.55;;;0.40;99.90;;;;;;4918538;28;20134;-78
2023/01/26 11:38:19;;;;;;;14.50;7.38;;;0.40;99.90;;;;;;4942869;28;20027;-78
2023/01/26 11:41:23;;;;;;;;;;;0.40;99.90;;;;;;4952968;28;20127;-77
2023/01/26 11:44:13;;;;;;;23.20;8.85;;;0.30;99.90;;;;;;4887061;29;19915;-79
2023/01/26 11:47:04;;;;;;;19.50;8.48;;;0.30;99.90;;;;;;4906525;29;20139;-79
2023/01/26 11:49:33;;;;;;;17.67;7.60;;;0.30;99.90;;;;;;4943067;28;20054;-77
2023/01/26 11:52:44;;;;;;;19.63;8.95;;;0.30;99.90;;;;;;4943563;28;20514;-78
2023/01/26 11:55:27;;;;;;;17.83;8.38;;;0.30;99.90;;;;;;4912186;28;20043;-78
2023/01/26 11:58:16;;;;;;;17.95;8.23;;;0.30;99.90;;;;;;4945224;28;20274;-79
2023/01/26 12:00:43;;;;;;;18.20;7.43;;;0.30;99.90;;;;;;4949092;28;20042;-79
2023/01/26 12:03:29;;;;;;;19.77;8.30;;;0.30;99.90;;;;;;4949425;28;20027;-79
2023/01/26 12:06:01;;;;;;;17.63;8.55;;;0.20;99.90;;;;;;4945448;28;20406;-78
2023/01/26 12:08:45;;;;;;;18.25;6.97;;;0.20;99.90;;;;;;4946778;28;20058;-78
2023/01/26 12:11:27;;;;;;;15.18;7.45;;;0.20;99.90;;;;;;4949883;28;20035;-78
2023/01/26 12:14:13;;;;;;;22.77;9.23;;;0.20;99.90;;;;;;4946466;28;20047;-78
2023/01/26 12:16:41;;;;;;;17.42;7.93;;;0.20;99.90;;;;;;4948070;28;20035;-79
2023/01/26 12:19:25;;;;;;;17.75;8.20;;;0.20;99.90;;;;;;4948987;28;20039;-78
2023/01/26 12:21:56;;;;;;;22.58;8.77;;;0.20;99.90;;;;;;4952569;28;20019;-78
2023/01/26 12:24:39;;;;;;;18.60;7.57;;;0.20;99.90;;;;;;4950406;28;20035;-78
2023/01/26 12:27:10;;;;;;;22.23;8.77;;;0.20;99.90;;;;;;4946491;28;20063;-78
2023/01/26 12:30:16;;;;;;;18.27;8.18;;;0.20;99.90;;;;;;4946365;28;20023;-79
2023/01/26 12:32:42;;;;;;;22.50;9.27;;;0.20;99.90;;;;;;4946797;28;20535;-78
2023/01/26 12:35:11;;;;;;;20.15;9.02;;;0.20;99.90;;;;;;4950425;28;20142;-79
2023/01/26 12:37:48;;;;;;;21.77;9.73;;;0.20;99.90;;;;;;4949031;28;20126;-78
2023/01/26 12:40:39;;;;;;;21.30;9.75;;;0.20;99.90;;;;;;4950422;28;20016;-80
2023/01/26 12:43:24;;;;;;;21.80;10.30;;;0.20;99.90;;;;;;4949013;28;20436;-79
2023/01/26 12:45:53;;;;;;;21.20;9.63;;;0.20;99.90;;;;;;4947929;28;20739;-79
2023/01/26 12:48:26;;;;;;;24.58;10.38;;;0.20;99.90;;;;;;4949015;28;20483;-79
2023/01/26 12:51:04;;;;;;;21.80;10.45;;;0.20;99.90;;;;;;4946251;28;20496;-79
2023/01/26 12:53:38;;;;;;;24.25;11.15;;;0.10;99.90;;;;;;4948876;28;20180;-79
2023/01/26 12:56:12;;;;;;;;;;;0.10;99.90;;;;;;4944378;28;20334;-79
2023/01/26 12:58:45;;;;;;;25.38;11.48;;;0.10;99.90;;;;;;4946300;28;19921;-79
2023/01/26 13:01:14;;;;;;;23.55;10.38;;;0.10;99.90;;;;;;4948713;28;20055;-79
2023/01/26 13:03:44;;;;;;;17.33;8.02;;;0.10;99.90;;;;;;4950103;28;20043;-78
2023/01/26 13:06:09;;;;;;;21.73;10.00;;;0.10;99.90;;;;;;4948328;28;20031;-79
2023/01/26 13:08:35;;;;;;;21.40;8.35;;;0.10;99.90;;;;;;4948226;28;20405;-78
2023/01/26 13:11:05;;;;;;;19.52;9.20;;;0.00;99.90;;;;;;4941697;28;20569;-78
2023/01/26 13:13:50;;;;;;;23.33;9.38;;;0.10;99.90;;;;;;4947031;28;20042;-78
2023/01/26 13:16:16;;;;;;;20.60;8.35;;;0.10;99.90;;;;;;4939769;28;20043;-78
2023/01/26 13:18:59;;;;;;;19.48;8.55;;;0.10;99.90;;;;;;4944096;28;20855;-77
2023/01/26 13:21:40;;;;;;;19.17;8.43;;;0.10;99.90;;;;;;4945187;28;20027;-78
2023/01/26 13:24:15;;;;;;;18.70;8.88;;;0.10;99.90;;;;;;4954658;28;20657;-78
2023/01/26 13:26:44;;;;;;;19.38;8.23;;;0.10;99.90;;;;;;4949109;28;20124;-78
2023/01/26 13:29:30;;;;;;;16.02;7.60;;;0.10;99.90;;;;;;4946666;28;20039;-78
2023/01/26 13:32:19;;;;;;;21.42;8.65;;;0.00;99.90;;;;;;4944466;28;20087;-78
2023/01/26 13:34:58;;;;;;;16.73;8.05;;;0.00;99.90;;;;;;4938116;28;20491;-78
2023/01/26 13:37:32;;;;;;;16.08;7.53;;;0.00;99.90;;;;;;4948548;28;20066;-78
2023/01/26 13:40:02;;;;;;;16.77;7.15;;;0.00;99.90;;;;;;4948572;28;20026;-78
2023/01/26 13:42:59;;;;;;;15.93;7.75;;;-0.10;99.90;;;;;;4948789;28;20031;-78
2023/01/26 13:46:01;;;;;;;17.73;7.47;;;0.00;99.90;;;;;;4947835;28;20060;-79
2023/01/26 13:48:39;;;;;;;19.08;8.45;;;0.00;99.90;;;;;;4943447;28;20030;-78